Time;durP1;ratioP1;P1;durP2;ratioP2;P2;SDS_P1;SDS_P2;PMS_P1;PMS_P2;Temp;Humidity;BMP_temperature;BMP_pressure;BME280_temperature;BME280_humidity;BME280_pressure;Samples;Min_cycle;Max_cycle;Signal;HPM_P1;HPM_P2
2020/12/19 00:02:06;;;;;;;3.97;3.57;;;7.90;99.90;;;;;;5087734;28;20470;-77
2020/12/19 00:04:40;;;;;;;4.10;3.40;;;7.90;99.90;;;;;;5084990;28;20976;-77
2020/12/19 00:07:07;;;;;;;3.37;3.00;;;7.90;99.90;;;;;;5063903;28;20482;-77
2020/12/19 00:09:36;;;;;;;4.13;3.70;;;7.90;1.00;;;;;;5086239;28;20507;-77
2020/12/19 00:12:03;;;;;;;4.80;3.33;;;8.00;99.90;;;;;;5080594;28;20472;-78
2020/12/19 00:14:30;;;;;;;4.97;3.17;;;7.90;99.90;;;;;;5086929;28;20477;-77
2020/12/19 00:16:57;;;;;;;3.43;3.10;;;7.80;1.00;;;;;;5077846;28;20523;-78
2020/12/19 00:19:25;;;;;;;5.93;3.80;;;7.70;1.00;;;;;;5087725;28;20478;-79
2020/12/19 00:21:52;;;;;;;3.23;2.93;;;7.70;99.90;;;;;;5082592;28;20461;-79
2020/12/19 00:24:20;;;;;;;3.50;3.00;;;7.60;1.00;;;;;;5085835;28;20468;-79
2020/12/19 00:26:48;;;;;;;3.40;3.13;;;7.60;99.90;;;;;;5053183;28;20469;-78
2020/12/19 00:29:15;;;;;;;3.50;3.20;;;7.60;99.90;;;;;;5073288;28;20497;-77
2020/12/19 00:31:42;;;;;;;3.10;2.80;;;7.60;1.00;;;;;;5059714;28;20556;-77
2020/12/19 00:34:10;;;;;;;3.13;2.90;;;7.60;99.90;;;;;;5089605;28;20499;-79
2020/12/19 00:36:37;;;;;;;3.50;3.20;;;7.50;99.90;;;;;;5068802;28;20473;-79
2020/12/19 00:39:05;;;;;;;5.03;3.40;;;7.50;51.00;;;;;;5088080;28;20494;-80
2020/12/19 00:41:32;;;;;;;4.07;3.37;;;7.50;99.90;;;;;;5090240;28;20513;-79
2020/12/19 00:44:00;;;;;;;3.50;2.90;;;7.40;99.90;;;;;;5086502;28;20542;-79
2020/12/19 00:46:27;;;;;;;4.53;3.37;;;7.40;99.90;;;;;;5091676;28;20465;-76
2020/12/19 00:48:55;;;;;;;3.30;2.77;;;7.30;99.90;;;;;;5069528;28;20496;-79
2020/12/19 00:51:24;;;;;;;3.40;3.20;;;7.30;1.00;;;;;;5094989;28;20465;-79
2020/12/19 00:53:51;;;;;;;3.30;3.10;;;7.20;1.00;;;;;;5089432;28;21062;-80
2020/12/19 00:56:20;;;;;;;5.00;3.57;;;7.10;99.90;;;;;;5105836;28;20473;-80
2020/12/19 00:58:48;;;;;;;3.73;2.63;;;7.10;1.00;;;;;;5092325;28;20481;-79
2020/12/19 01:01:19;;;;;;;5.17;3.07;;;7.10;99.90;;;;;;5075186;28;20499;-78
2020/12/19 01:03:47;;;;;;;2.73;2.53;;;7.10;99.90;;;;;;5097238;28;20560;-78
2020/12/19 01:06:15;;;;;;;5.57;3.67;;;7.20;1.00;;;;;;5094251;28;20486;-79
2020/12/19 01:08:43;;;;;;;5.90;4.20;;;7.20;1.00;;;;;;5065014;28;20556;-78
2020/12/19 01:11:27;;;;;;;5.93;5.13;;;7.20;99.90;;;;;;5096298;28;20473;-79
2020/12/19 01:13:55;;;;;;;5.60;3.73;;;7.30;99.90;;;;;;5093940;28;20520;-79
2020/12/19 01:16:25;;;;;;;5.60;3.80;;;7.30;1.00;;;;;;5092702;28;20476;-80
2020/12/19 01:18:53;;;;;;;4.90;3.00;;;7.30;1.00;;;;;;5084886;28;21015;-80
2020/12/19 01:21:22;;;;;;;4.03;3.57;;;7.30;19.80;;;;;;5071085;28;20565;-78
2020/12/19 01:23:50;;;;;;;5.40;4.03;;;7.30;1.00;;;;;;5071338;28;20468;-79
2020/12/19 01:26:19;;;;;;;3.10;2.80;;;7.20;1.00;;;;;;5097968;28;20594;-78
2020/12/19 01:28:47;;;;;;;2.77;2.57;;;7.20;11.80;;;;;;5070499;28;20494;-79
2020/12/19 01:31:16;;;;;;;3.50;3.20;;;7.20;99.90;;;;;;5087603;28;20470;-79
2020/12/19 01:33:44;;;;;;;4.10;3.10;;;7.30;99.90;;;;;;5079705;28;20476;-79
2020/12/19 01:36:13;;;;;;;3.23;2.40;;;7.20;99.90;;;;;;5069634;28;20484;-79
2020/12/19 01:38:40;;;;;;;3.60;3.10;;;7.20;99.90;;;;;;5094620;28;20503;-78
2020/12/19 01:41:08;;;;;;;2.80;2.50;;;7.20;99.90;;;;;;5089706;28;20465;-78
2020/12/19 01:43:45;;;;;;;2.67;2.47;;;7.20;99.90;;;;;;5087723;28;20514;-79
2020/12/19 01:46:12;;;;;;;3.27;2.43;;;7.10;99.90;;;;;;5068229;28;20878;-78
2020/12/19 01:48:40;;;;;;;4.07;2.40;;;7.20;99.90;;;;;;5089913;28;20925;-79
2020/12/19 01:51:08;;;;;;;2.97;2.73;;;7.20;37.70;;;;;;5095591;28;20469;-79
2020/12/19 01:53:35;;;;;;;3.80;2.90;;;7.30;99.90;;;;;;5095139;28;21119;-78
2020/12/19 01:56:02;;;;;;;3.63;3.10;;;7.40;99.90;;;;;;5088097;28;21057;-79
2020/12/19 01:58:29;;;;;;;2.50;2.30;;;7.30;99.90;;;;;;5088189;28;20486;-78
2020/12/19 02:00:58;;;;;;;5.10;2.83;;;7.30;23.40;;;;;;5087815;28;20470;-78
2020/12/19 02:03:34;;;;;;;4.10;2.90;;;7.30;99.90;;;;;;5091988;28;20480;-77
2020/12/19 02:06:03;;;;;;;2.83;2.57;;;7.40;99.90;;;;;;5086959;28;20533;-79
2020/12/19 02:08:31;;;;;;;3.27;3.00;;;7.40;99.90;;;;;;5075708;28;20550;-77
2020/12/19 02:10:58;;;;;;;2.83;2.60;;;7.40;99.90;;;;;;5086595;28;20469;-79
2020/12/19 02:13:25;;;;;;;3.00;2.40;;;7.30;1.00;;;;;;5084341;28;20488;-79
2020/12/19 02:15:53;;;;;;;2.73;1.93;;;7.30;3.60;;;;;;5085200;28;20462;-77
2020/12/19 02:18:20;;;;;;;2.60;2.40;;;7.30;1.00;;;;;;5082019;28;20484;-77
2020/12/19 02:20:48;;;;;;;3.07;2.70;;;7.30;1.00;;;;;;5067091;28;20478;-78
2020/12/19 02:23:16;;;;;;;2.50;2.30;;;7.40;1.00;;;;;;5068428;28;21009;-78
2020/12/19 02:25:47;;;;;;;1.93;1.83;;;7.30;99.90;;;;;;5058380;28;20849;-79
2020/12/19 02:28:15;;;;;;;4.53;2.27;;;7.30;99.90;;;;;;5076993;28;20501;-78
2020/12/19 02:30:42;;;;;;;3.63;2.80;;;7.20;99.90;;;;;;5077997;28;20528;-77
2020/12/19 02:33:09;;;;;;;2.90;2.43;;;7.30;99.90;;;;;;5083505;28;20956;-77
2020/12/19 02:35:36;;;;;;;3.07;2.37;;;7.40;99.90;;;;;;5089381;28;21314;-79
2020/12/19 02:38:03;;;;;;;2.43;2.07;;;7.40;99.90;;;;;;5089891;28;20502;-78
2020/12/19 02:40:31;;;;;;;3.03;2.43;;;7.40;99.90;;;;;;5066077;28;20481;-79
2020/12/19 02:42:58;;;;;;;2.23;2.03;;;7.50;99.90;;;;;;5081790;28;20511;-78
2020/12/19 02:45:25;;;;;;;3.03;1.90;;;7.50;20.00;;;;;;5061037;28;20474;-78
2020/12/19 02:47:52;;;;;;;2.33;2.23;;;7.40;43.70;;;;;;5085196;28;20621;-80
2020/12/19 02:50:20;;;;;;;2.30;2.10;;;7.30;57.50;;;;;;5080241;28;20809;-78
2020/12/19 02:52:47;;;;;;;2.70;2.50;;;7.30;99.90;;;;;;5092502;28;20962;-78
2020/12/19 02:55:14;;;;;;;2.67;2.43;;;7.40;99.90;;;;;;5083437;28;20980;-77
2020/12/19 02:57:42;;;;;;;5.27;3.10;;;7.40;99.90;;;;;;5091273;28;20460;-78
2020/12/19 03:00:09;;;;;;;2.20;2.00;;;7.40;99.90;;;;;;5064644;28;20459;-78
2020/12/19 03:02:36;;;;;;;3.80;3.03;;;7.40;19.20;;;;;;5083368;28;21903;-80
2020/12/19 03:05:04;;;;;;;3.27;2.20;;;7.50;1.00;;;;;;5084883;28;20554;-78
2020/12/19 03:07:31;;;;;;;2.80;2.30;;;7.50;1.00;;;;;;5085982;28;20577;-78
2020/12/19 03:09:58;;;;;;;2.60;2.13;;;7.50;1.00;;;;;;5083043;28;20617;-79
2020/12/19 03:12:25;;;;;;;3.10;2.23;;;7.40;1.00;;;;;;5081716;28;20478;-78
2020/12/19 03:14:53;;;;;;;2.60;2.40;;;7.40;1.00;;;;;;5083028;28;20457;-78
2020/12/19 03:17:20;;;;;;;2.83;2.10;;;7.40;69.60;;;;;;5077613;28;20468;-79
2020/12/19 03:19:47;;;;;;;2.07;1.97;;;7.40;1.00;;;;;;5081583;28;20465;-79
2020/12/19 03:22:14;;;;;;;2.90;2.60;;;7.40;1.00;;;;;;5090436;28;20548;-78
2020/12/19 03:24:41;;;;;;;2.53;2.40;;;7.40;99.90;;;;;;5064252;28;20472;-79
2020/12/19 03:27:08;;;;;;;3.10;2.80;;;7.40;48.90;;;;;;5089719;28;20478;-79
2020/12/19 03:29:35;;;;;;;3.63;2.40;;;7.50;1.00;;;;;;5084816;28;20558;-79
2020/12/19 03:32:03;;;;;;;2.80;2.50;;;7.50;1.00;;;;;;5067285;28;20989;-79
2020/12/19 03:34:30;;;;;;;2.73;2.50;;;7.50;1.00;;;;;;5083549;28;20469;-80
2020/12/19 03:36:57;;;;;;;3.07;2.20;;;7.50;1.00;;;;;;5060983;28;20465;-78
2020/12/19 03:39:24;;;;;;;2.40;1.90;;;7.50;99.90;;;;;;5063089;28;20538;-78
2020/12/19 03:41:51;;;;;;;4.10;2.10;;;7.40;1.00;;;;;;5084433;28;20458;-78
2020/12/19 03:44:18;;;;;;;6.87;2.20;;;7.30;1.00;;;;;;5086399;28;20761;-78
2020/12/19 03:46:45;;;;;;;2.47;2.27;;;7.30;98.20;;;;;;5066219;28;20544;-77
2020/12/19 03:49:13;;;;;;;3.37;2.30;;;7.20;21.50;;;;;;5063420;28;21321;-78
2020/12/19 03:51:41;;;;;;;2.73;2.40;;;7.20;1.00;;;;;;5069822;28;20478;-78
2020/12/19 03:54:08;;;;;;;2.90;2.23;;;7.10;99.90;;;;;;5085707;28;20459;-79
2020/12/19 03:56:35;;;;;;;2.40;2.20;;;7.10;99.90;;;;;;5088858;28;20462;-80
2020/12/19 03:59:02;;;;;;;3.13;2.57;;;7.00;99.90;;;;;;5080830;28;21002;-80
2020/12/19 04:01:29;;;;;;;4.43;2.80;;;6.90;1.00;;;;;;5084334;28;20986;-79
2020/12/19 04:03:56;;;;;;;3.33;2.20;;;6.90;99.90;;;;;;5062430;28;20524;-79
2020/12/19 04:06:24;;;;;;;2.77;2.10;;;6.90;99.90;;;;;;5090096;28;20459;-78
2020/12/19 04:08:51;;;;;;;2.80;2.30;;;7.00;1.00;;;;;;5081653;28;20487;-79
2020/12/19 04:11:18;;;;;;;2.30;2.10;;;7.00;99.90;;;;;;5081963;28;20474;-78
2020/12/19 04:13:45;;;;;;;3.10;2.30;;;7.10;1.00;;;;;;5084787;28;20529;-79
2020/12/19 04:16:12;;;;;;;2.43;2.23;;;7.20;1.00;;;;;;5092801;28;20460;-79
2020/12/19 04:18:40;;;;;;;3.00;2.07;;;7.30;99.90;;;;;;5088815;28;20666;-78
2020/12/19 04:21:07;;;;;;;2.93;2.37;;;7.30;99.90;;;;;;5101937;28;20519;-78
2020/12/19 04:23:35;;;;;;;3.10;2.60;;;7.40;99.90;;;;;;5075303;28;20457;-78
2020/12/19 04:26:02;;;;;;;2.57;2.27;;;7.30;1.00;;;;;;5064039;28;20489;-79
2020/12/19 04:28:29;;;;;;;3.00;2.80;;;7.30;1.00;;;;;;5079432;28;20547;-79
2020/12/19 04:30:57;;;;;;;2.80;2.40;;;7.20;1.00;;;;;;5094205;28;20879;-80
2020/12/19 04:33:24;;;;;;;2.63;2.47;;;7.10;1.00;;;;;;5087104;28;20469;-78
2020/12/19 04:35:51;;;;;;;3.67;2.67;;;7.00;99.90;;;;;;5093983;28;20511;-79
2020/12/19 04:38:19;;;;;;;2.40;2.20;;;6.90;99.90;;;;;;5062543;28;20581;-79
2020/12/19 04:40:47;;;;;;;3.00;2.70;;;6.90;99.90;;;;;;5092343;28;20534;-78
2020/12/19 04:43:15;;;;;;;4.40;2.30;;;6.80;1.00;;;;;;5084644;28;20523;-79
2020/12/19 04:45:44;;;;;;;2.00;1.90;;;6.80;90.10;;;;;;5084142;28;20469;-79
2020/12/19 04:48:11;;;;;;;1.97;1.77;;;6.70;99.90;;;;;;5067223;28;20247;-78
2020/12/19 04:50:40;;;;;;;2.57;2.37;;;6.70;99.90;;;;;;5077565;28;20479;-79
2020/12/19 04:53:14;;;;;;;2.70;2.20;;;6.60;99.90;;;;;;5101679;28;20498;-80
2020/12/19 04:55:41;;;;;;;4.10;3.10;;;6.60;1.00;;;;;;5094906;28;20207;-78
2020/12/19 04:58:12;;;;;;;3.53;2.87;;;6.60;99.90;;;;;;5098405;28;20488;-77
2020/12/19 05:00:40;;;;;;;2.30;2.10;;;6.60;1.00;;;;;;5085194;28;20548;-77
2020/12/19 05:03:07;;;;;;;3.90;2.33;;;6.60;99.90;;;;;;5066348;28;20576;-77
2020/12/19 05:05:34;;;;;;;4.20;2.63;;;6.70;1.00;;;;;;5085418;28;20953;-78
2020/12/19 05:08:01;;;;;;;5.00;3.40;;;6.70;99.90;;;;;;5069091;28;20515;-77
2020/12/19 05:10:29;;;;;;;2.60;2.40;;;6.60;1.00;;;;;;5081728;28;20506;-78
2020/12/19 05:12:56;;;;;;;2.33;2.13;;;6.60;4.50;;;;;;5088194;28;20461;-77
2020/12/19 05:15:24;;;;;;;3.80;2.70;;;6.60;1.00;;;;;;5086553;28;20844;-79
2020/12/19 05:17:52;;;;;;;3.15;2.58;;;6.60;1.00;;;;;;5068245;28;20920;-78
2020/12/19 05:20:21;;;;;;;2.75;2.30;;;6.50;1.00;;;;;;5086960;28;20690;-77
2020/12/19 05:22:49;;;;;;;3.33;2.95;;;6.50;1.00;;;;;;5085937;28;20212;-78
2020/12/19 05:25:17;;;;;;;3.17;2.22;;;6.40;1.00;;;;;;5090076;28;20264;-77
2020/12/19 05:27:45;;;;;;;5.07;3.30;;;6.40;1.00;;;;;;5089427;28;20271;-78
2020/12/19 05:30:13;;;;;;;2.20;2.00;;;6.40;99.90;;;;;;5083059;28;20492;-77
2020/12/19 05:32:46;;;;;;;3.05;2.75;;;6.40;94.50;;;;;;5091752;28;20460;-77
2020/12/19 05:35:14;;;;;;;3.33;2.70;;;6.40;99.90;;;;;;5086708;28;20204;-78
2020/12/19 05:38:01;;;;;;;3.13;2.40;;;6.40;99.90;;;;;;5084799;28;21118;-78
2020/12/19 05:40:30;;;;;;;2.90;2.30;;;6.40;99.90;;;;;;5085190;28;20211;-78
2020/12/19 05:42:58;;;;;;;3.38;2.40;;;6.40;1.00;;;;;;5089214;28;20448;-78
2020/12/19 05:45:26;;;;;;;4.73;3.00;;;6.40;99.90;;;;;;5090250;28;20289;-77
2020/12/19 05:47:55;;;;;;;3.40;3.10;;;6.50;99.90;;;;;;5084100;28;20540;-77
2020/12/19 05:50:23;;;;;;;3.27;2.43;;;6.50;1.00;;;;;;5089684;28;20247;-78
2020/12/19 05:52:50;;;;;;;2.80;2.60;;;6.50;1.00;;;;;;5085467;28;20471;-77
2020/12/19 05:55:19;;;;;;;2.87;2.60;;;6.50;1.00;;;;;;5091434;28;20474;-78
2020/12/19 05:57:46;;;;;;;3.30;2.40;;;6.60;1.00;;;;;;5082245;28;20487;-78
2020/12/19 06:00:15;;;;;;;2.83;2.53;;;6.60;99.90;;;;;;5084686;28;20212;-77
2020/12/19 06:02:43;;;;;;;3.20;2.90;;;6.70;99.90;;;;;;5083690;28;20503;-79
2020/12/19 06:05:12;;;;;;;2.50;2.30;;;6.80;1.00;;;;;;5084938;28;20469;-78
2020/12/19 06:07:41;;;;;;;3.27;2.97;;;6.90;58.80;;;;;;5095183;28;20542;-77
2020/12/19 06:10:11;;;;;;;2.47;2.13;;;6.80;1.00;;;;;;5088036;28;20482;-77
2020/12/19 06:12:59;;;;;;;2.93;2.67;;;6.80;99.90;;;;;;5092409;28;20484;-76
2020/12/19 06:15:45;;;;;;;4.70;2.10;;;6.80;99.90;;;;;;5069559;28;20497;-76
2020/12/19 06:18:19;;;;;;;2.60;1.95;;;6.70;1.00;;;;;;5082523;28;20524;-77
2020/12/19 06:20:47;;;;;;;2.58;2.40;;;6.60;99.90;;;;;;5081881;28;20211;-77
2020/12/19 06:23:15;;;;;;;2.60;2.30;;;6.60;1.00;;;;;;5092041;28;20701;-78
2020/12/19 06:25:44;;;;;;;3.97;1.98;;;6.50;1.00;;;;;;5084653;28;20479;-77
2020/12/19 06:28:12;;;;;;;2.53;2.33;;;6.50;1.00;;;;;;5085322;28;20252;-77
2020/12/19 06:30:39;;;;;;;2.50;2.30;;;6.50;99.90;;;;;;5083963;28;20246;-79
2020/12/19 06:33:14;;;;;;;2.30;1.90;;;6.50;99.90;;;;;;5086762;28;20547;-76
2020/12/19 06:35:49;;;;;;;3.35;2.75;;;6.60;1.00;;;;;;5086171;28;20466;-78
2020/12/19 06:38:43;;;;;;;2.43;1.93;;;6.50;1.00;;;;;;5070643;28;20242;-77
2020/12/19 06:41:11;;;;;;;2.73;1.80;;;6.50;99.90;;;;;;5056668;28;20478;-76
2020/12/19 06:44:05;;;;;;;4.40;2.50;;;6.50;1.00;;;;;;5086482;28;20465;-76
2020/12/19 06:46:32;;;;;;;3.22;2.78;;;6.60;8.00;;;;;;5080911;28;20473;-76
2020/12/19 06:49:00;;;;;;;4.00;3.08;;;6.60;99.90;;;;;;5081213;28;20504;-77
2020/12/19 06:51:48;;;;;;;4.95;3.00;;;6.70;1.00;;;;;;5084549;28;20584;-76
2020/12/19 06:54:26;;;;;;;3.07;2.73;;;6.70;1.00;;;;;;5080008;28;20312;-75
2020/12/19 06:56:54;;;;;;;3.20;2.90;;;6.70;99.90;;;;;;5076788;28;20474;-76
2020/12/19 06:59:23;;;;;;;3.13;2.83;;;6.70;99.90;;;;;;5075022;28;21172;-77
2020/12/19 07:01:50;;;;;;;3.70;3.40;;;6.70;99.90;;;;;;5060789;28;21013;-78
2020/12/19 07:04:34;;;;;;;3.43;3.00;;;6.70;99.90;;;;;;5060614;28;20541;-76
2020/12/19 07:07:07;;;;;;;3.83;2.50;;;6.60;99.90;;;;;;5061814;28;21182;-76
2020/12/19 07:09:35;;;;;;;2.33;2.13;;;6.60;99.90;;;;;;5080633;28;20832;-73
2020/12/19 07:12:02;;;;;;;3.40;2.40;;;6.60;1.00;;;;;;5079555;28;20481;-75
2020/12/19 07:14:40;;;;;;;3.53;2.23;;;6.60;99.90;;;;;;5063258;28;20843;-74
2020/12/19 07:17:19;;;;;;;2.83;2.50;;;6.50;99.90;;;;;;5084025;28;20496;-77
2020/12/19 07:19:47;;;;;;;2.65;2.45;;;6.50;1.00;;;;;;5091663;28;20455;-73
2020/12/19 07:22:15;;;;;;;16.58;8.32;;;6.50;99.90;;;;;;5081780;28;20400;-73
2020/12/19 07:24:42;;;;;;;9.50;6.15;;;6.50;1.00;;;;;;5079704;28;20209;-74
2020/12/19 07:27:09;;;;;;;4.27;3.87;;;6.50;1.00;;;;;;5094743;28;20631;-74
2020/12/19 07:29:36;;;;;;;4.70;3.88;;;6.40;1.00;;;;;;5077389;28;20849;-76
2020/12/19 07:32:04;;;;;;;4.17;3.20;;;6.40;1.00;;;;;;5062958;28;20222;-74
2020/12/19 07:34:31;;;;;;;4.60;3.90;;;6.40;30.80;;;;;;5082601;28;20499;-74
2020/12/19 07:36:58;;;;;;;3.70;3.40;;;6.40;1.00;;;;;;5079795;28;20477;-73
2020/12/19 07:39:26;;;;;;;4.40;3.53;;;6.30;99.90;;;;;;5085396;28;20547;-74
2020/12/19 07:42:02;;;;;;;4.00;3.25;;;6.30;1.00;;;;;;5090600;28;20479;-74
2020/12/19 07:44:29;;;;;;;5.93;4.45;;;6.30;1.00;;;;;;5089169;28;20694;-74
2020/12/19 07:46:58;;;;;;;4.47;3.70;;;6.30;1.00;;;;;;5080400;28;20221;-75
2020/12/19 07:49:44;;;;;;;3.55;3.08;;;6.30;1.00;;;;;;5082562;28;20583;-72
2020/12/19 07:52:14;;;;;;;4.83;4.10;;;6.30;1.00;;;;;;5074375;28;20751;-73
2020/12/19 07:54:55;;;;;;;3.80;3.40;;;6.20;1.00;;;;;;5091898;28;20478;-73
2020/12/19 07:57:23;;;;;;;4.70;3.65;;;6.20;1.00;;;;;;5081210;28;22124;-74
2020/12/19 07:59:52;;;;;;;3.85;3.47;;;6.20;99.90;;;;;;5074593;28;20208;-73
2020/12/19 08:02:21;;;;;;;4.05;3.20;;;6.20;1.00;;;;;;5075583;28;20224;-73
2020/12/19 08:04:52;;;;;;;3.83;3.47;;;6.20;99.90;;;;;;5083499;28;21062;-73
2020/12/19 08:07:21;;;;;;;4.07;3.40;;;6.20;1.00;;;;;;5084844;28;20518;-72
2020/12/19 08:09:49;;;;;;;4.10;3.50;;;6.20;1.00;;;;;;5085901;28;20245;-73
2020/12/19 08:12:16;;;;;;;4.57;3.50;;;6.20;1.00;;;;;;5068597;28;20890;-74
2020/12/19 08:14:45;;;;;;;4.82;4.43;;;6.20;99.90;;;;;;5082661;28;20252;-73
2020/12/19 08:17:14;;;;;;;3.65;3.30;;;6.20;63.40;;;;;;5083446;28;20211;-74
2020/12/19 08:19:45;;;;;;;4.13;3.72;;;6.50;99.90;;;;;;5083903;28;20259;-75
2020/12/19 08:22:12;;;;;;;3.07;2.77;;;7.00;1.00;;;;;;5082251;28;20754;-73
2020/12/19 08:24:58;;;;;;;2.90;2.70;;;7.60;1.00;;;;;;5079765;28;20469;-73
2020/12/19 08:27:44;;;;;;;2.87;2.67;;;8.30;96.10;;;;;;5082915;28;20472;-76
2020/12/19 08:30:20;;;;;;;2.83;2.50;;;8.90;91.00;;;;;;5054855;28;20575;-76
2020/12/19 08:32:50;;;;;;;5.90;2.97;;;9.30;99.90;;;;;;5063054;28;20468;-74
2020/12/19 08:35:23;;;;;;;2.80;2.43;;;9.80;64.00;;;;;;5062624;28;21275;-76
2020/12/19 08:37:51;;;;;;;2.77;2.57;;;10.30;1.00;;;;;;5064569;28;20483;-77
2020/12/19 08:40:20;;;;;;;3.37;3.00;;;10.70;1.00;;;;;;5088911;28;20474;-73
2020/12/19 08:42:49;;;;;;;3.00;2.80;;;11.10;1.00;;;;;;5081272;28;20510;-75
2020/12/19 08:45:22;;;;;;;2.93;2.60;;;11.30;99.90;;;;;;5087733;28;20486;-75
2020/12/19 08:47:54;;;;;;;4.50;4.10;;;11.60;99.90;;;;;;5094901;28;20477;-74
2020/12/19 08:50:30;;;;;;;8.40;7.60;;;11.80;99.90;;;;;;5085672;28;20495;-73
2020/12/19 08:53:11;;;;;;;4.23;3.60;;;11.80;99.90;;;;;;5084175;28;21044;-75
2020/12/19 08:55:40;;;;;;;4.83;4.30;;;11.80;99.90;;;;;;5077626;28;20963;-74
2020/12/19 08:58:08;;;;;;;5.67;5.07;;;11.80;99.90;;;;;;5081821;28;20887;-74
2020/12/19 09:00:37;;;;;;;6.27;5.87;;;11.70;99.90;;;;;;5081499;28;20987;-75
2020/12/19 09:03:09;;;;;;;6.13;5.53;;;11.60;99.90;;;;;;5081671;28;20508;-74
2020/12/19 09:05:42;;;;;;;7.33;5.30;;;11.50;99.90;;;;;;5090118;28;20471;-73
2020/12/19 09:08:11;;;;;;;6.43;5.73;;;11.30;99.90;;;;;;5085492;28;20492;-75
2020/12/19 09:10:40;;;;;;;5.33;4.93;;;11.20;99.90;;;;;;5068083;28;20465;-72
2020/12/19 09:13:12;;;;;;;5.67;5.17;;;11.10;99.90;;;;;;5079633;28;20454;-72
2020/12/19 09:15:39;;;;;;;7.83;6.30;;;10.90;99.90;;;;;;5088014;28;20457;-73
2020/12/19 09:18:21;;;;;;;6.70;6.03;;;10.80;99.90;;;;;;5082228;28;21173;-72
2020/12/19 09:20:53;;;;;;;6.60;5.90;;;10.70;99.90;;;;;;5076620;28;20458;-74
2020/12/19 09:23:20;;;;;;;9.03;7.87;;;10.50;1.00;;;;;;5085899;28;20463;-72
2020/12/19 09:25:48;;;;;;;11.87;6.20;;;10.40;1.00;;;;;;5082797;28;20458;-72
2020/12/19 09:28:16;;;;;;;9.83;8.00;;;10.30;1.00;;;;;;5077130;28;20518;-76
2020/12/19 09:30:44;;;;;;;11.03;8.40;;;10.40;1.00;;;;;;5058054;28;20489;-74
2020/12/19 09:33:11;;;;;;;7.00;6.13;;;10.40;1.00;;;;;;5079888;28;21356;-72
2020/12/19 09:35:38;;;;;;;3.53;3.20;;;10.40;1.00;;;;;;5085139;28;20526;-74
2020/12/19 09:38:05;;;;;;;6.20;5.60;;;10.60;1.00;;;;;;5082789;28;21024;-75
2020/12/19 09:40:33;;;;;;;5.60;4.80;;;10.70;1.00;;;;;;5083715;28;20468;-76
2020/12/19 09:43:01;;;;;;;5.77;5.20;;;10.80;1.00;;;;;;5082279;28;20449;-77
2020/12/19 09:45:28;;;;;;;7.40;5.83;;;11.10;1.00;;;;;;5089662;28;20466;-76
2020/12/19 09:47:56;;;;;;;5.93;5.23;;;11.30;1.00;;;;;;5083923;28;20497;-74
2020/12/19 09:50:24;;;;;;;5.93;5.33;;;11.50;1.00;;;;;;5062480;28;20514;-75
2020/12/19 09:52:51;;;;;;;4.70;4.30;;;11.60;1.00;;;;;;5081622;28;20460;-74
2020/12/19 09:55:19;;;;;;;6.67;5.33;;;11.80;1.00;;;;;;5089579;28;20477;-74
2020/12/19 09:57:47;;;;;;;4.70;4.30;;;12.00;1.00;;;;;;5082217;28;20554;-73
2020/12/19 10:00:15;;;;;;;3.20;2.90;;;12.20;99.90;;;;;;5079847;28;20978;-73
2020/12/19 10:02:46;;;;;;;4.03;3.63;;;12.30;99.90;;;;;;5078655;28;20964;-72
2020/12/19 10:05:13;;;;;;;3.40;3.10;;;12.60;99.90;;;;;;5080602;28;20495;-71
2020/12/19 10:07:40;;;;;;;2.40;2.20;;;13.20;99.90;;;;;;5082296;28;20231;-76
2020/12/19 10:10:08;;;;;;;4.77;2.90;;;13.50;99.90;;;;;;5096250;28;20479;-77
2020/12/19 10:12:35;;;;;;;2.10;2.00;;;13.90;99.90;;;;;;5087266;28;20467;-75
2020/12/19 10:15:03;;;;;;;3.40;2.50;;;14.40;99.90;;;;;;5077230;28;20513;-77
2020/12/19 10:17:31;;;;;;;1.60;1.50;;;15.00;99.90;;;;;;5089673;28;20522;-75
2020/12/19 10:19:58;;;;;;;2.27;1.83;;;15.40;99.90;;;;;;5090378;28;21141;-78
2020/12/19 10:22:30;;;;;;;1.63;1.53;;;15.30;99.90;;;;;;5078531;28;20940;-76
2020/12/19 10:25:00;;;;;;;1.43;1.30;;;14.70;99.90;;;;;;5084391;28;20561;-74
2020/12/19 10:27:27;;;;;;;2.10;1.40;;;14.40;99.90;;;;;;5068661;28;20452;-76
2020/12/19 10:29:54;;;;;;;2.53;1.43;;;14.20;99.90;;;;;;5087752;28;20478;-77
2020/12/19 10:32:21;;;;;;;3.23;1.63;;;14.20;99.90;;;;;;5089154;28;21051;-75
2020/12/19 10:34:50;;;;;;;1.50;1.30;;;14.00;99.90;;;;;;5063668;28;20508;-76
2020/12/19 10:37:17;;;;;;;4.77;1.27;;;13.90;99.90;;;;;;5084764;28;20460;-76
2020/12/19 10:39:44;;;;;;;1.80;1.47;;;14.20;99.90;;;;;;5096758;28;20462;-75
2020/12/19 10:42:12;;;;;;;1.57;1.20;;;14.40;99.90;;;;;;5081596;28;20463;-74
2020/12/19 10:44:39;;;;;;;1.73;1.30;;;14.50;99.90;;;;;;5097741;28;20988;-76
2020/12/19 10:47:06;;;;;;;1.40;1.30;;;14.80;99.90;;;;;;5062102;28;20519;-76
2020/12/19 10:49:33;;;;;;;1.30;1.00;;;15.10;99.90;;;;;;5085203;28;20476;-76
2020/12/19 10:52:04;;;;;;;1.40;1.17;;;15.00;99.90;;;;;;5087403;28;20467;-76
2020/12/19 10:54:31;;;;;;;0.90;0.90;;;14.90;99.90;;;;;;5089456;28;21024;-76
2020/12/19 10:56:59;;;;;;;0.90;0.90;;;14.90;99.90;;;;;;5087644;28;20464;-77
2020/12/19 10:59:27;;;;;;;3.93;1.80;;;15.10;99.90;;;;;;5085227;28;20473;-76
2020/12/19 11:01:54;;;;;;;3.77;2.00;;;15.70;99.90;;;;;;5091302;28;20445;-76
2020/12/19 11:04:21;;;;;;;3.00;2.10;;;16.40;99.90;;;;;;5086354;28;20504;-76
2020/12/19 11:06:49;;;;;;;1.60;1.50;;;16.80;99.90;;;;;;5088244;28;20466;-77
2020/12/19 11:09:17;;;;;;;1.40;1.30;;;17.10;99.90;;;;;;5089559;28;20490;-76
2020/12/19 11:11:50;;;;;;;1.53;0.90;;;17.50;99.90;;;;;;5064299;28;20456;-78
2020/12/19 11:14:17;;;;;;;1.50;1.30;;;17.30;99.90;;;;;;5085145;28;20476;-76
2020/12/19 11:16:45;;;;;;;3.00;1.20;;;16.30;99.90;;;;;;5092572;28;20473;-77
2020/12/19 11:19:13;;;;;;;1.20;1.10;;;16.10;99.90;;;;;;5086103;28;20482;-77
2020/12/19 11:21:44;;;;;;;1.00;1.00;;;15.40;99.90;;;;;;5067428;28;20515;-76
2020/12/19 11:24:13;;;;;;;1.40;1.30;;;15.00;99.90;;;;;;5088370;28;20494;-76
2020/12/19 11:26:42;;;;;;;1.37;1.27;;;15.00;99.90;;;;;;5088406;28;20461;-76
2020/12/19 11:29:10;;;;;;;1.43;1.33;;;14.90;99.90;;;;;;5086749;28;20492;-77
2020/12/19 11:31:38;;;;;;;1.20;1.10;;;14.90;99.90;;;;;;5089884;28;20921;-75
2020/12/19 11:34:06;;;;;;;1.10;1.00;;;15.10;99.90;;;;;;5061740;28;20473;-77
2020/12/19 11:36:38;;;;;;;2.90;1.40;;;15.30;99.90;;;;;;5093670;28;20461;-75
2020/12/19 11:39:10;;;;;;;1.97;1.30;;;15.30;99.90;;;;;;5082618;28;20486;-76
2020/12/19 11:41:38;;;;;;;1.10;1.00;;;15.70;99.90;;;;;;5062918;28;20468;-76
2020/12/19 11:44:07;;;;;;;1.10;1.10;;;15.90;99.90;;;;;;5087303;28;20472;-76
2020/12/19 11:46:34;;;;;;;1.50;1.40;;;16.10;99.90;;;;;;5088719;28;21045;-75
2020/12/19 11:49:01;;;;;;;1.40;1.30;;;16.40;99.90;;;;;;5091156;28;20484;-76
2020/12/19 11:51:30;;;;;;;3.00;1.20;;;16.70;99.90;;;;;;5090806;28;20933;-76
2020/12/19 11:53:58;;;;;;;1.63;1.40;;;17.10;99.90;;;;;;5092620;28;20908;-76
2020/12/19 11:56:26;;;;;;;1.87;1.50;;;17.40;99.90;;;;;;5083312;28;20512;-76
2020/12/19 11:58:53;;;;;;;2.13;1.30;;;17.60;99.90;;;;;;5085478;28;20995;-77
2020/12/19 12:01:26;;;;;;;2.70;2.00;;;17.80;99.90;;;;;;5079446;28;20447;-76
2020/12/19 12:03:53;;;;;;;2.37;1.73;;;17.50;99.90;;;;;;5083471;28;20471;-74
2020/12/19 12:06:30;;;;;;;2.20;2.00;;;17.10;99.90;;;;;;5080047;28;20510;-72
2020/12/19 12:08:57;;;;;;;3.00;2.70;;;17.00;99.90;;;;;;5085119;28;20532;-77
2020/12/19 12:11:25;;;;;;;4.60;2.37;;;17.10;99.90;;;;;;5083642;28;20480;-77
2020/12/19 12:13:52;;;;;;;1.93;1.83;;;17.30;99.90;;;;;;5081452;28;20537;-81
2020/12/19 12:16:20;;;;;;;2.40;2.10;;;17.90;99.90;;;;;;5079001;28;20454;-77
2020/12/19 12:18:47;;;;;;;2.23;2.03;;;18.70;99.90;;;;;;5086475;28;21275;-78
2020/12/19 12:21:14;;;;;;;1.60;1.50;;;19.50;99.90;;;;;;5086802;28;20527;-76
2020/12/19 12:23:44;;;;;;;1.60;1.50;;;19.90;99.90;;;;;;5077088;28;20440;-76
2020/12/19 12:26:12;;;;;;;1.80;1.27;;;19.60;99.90;;;;;;5083832;28;20457;-76
2020/12/19 12:28:40;;;;;;;1.27;1.17;;;19.30;99.90;;;;;;5087142;28;20493;-77
2020/12/19 12:31:07;;;;;;;1.50;1.40;;;19.20;99.90;;;;;;5059676;28;20496;-77
2020/12/19 12:33:35;;;;;;;1.97;1.40;;;18.90;99.90;;;;;;5064088;28;20504;-77
2020/12/19 12:36:02;;;;;;;2.13;2.00;;;18.10;99.90;;;;;;5089400;28;20448;-80
2020/12/19 12:38:30;;;;;;;1.97;1.87;;;18.00;99.90;;;;;;5085066;28;20473;-79
2020/12/19 12:40:57;;;;;;;1.97;1.83;;;17.70;99.90;;;;;;5069597;28;20474;-74
2020/12/19 12:43:24;;;;;;;1.97;1.87;;;17.70;99.90;;;;;;5084810;28;20446;-74
2020/12/19 12:45:51;;;;;;;1.40;1.30;;;18.20;99.90;;;;;;5086011;28;20522;-75
2020/12/19 12:48:18;;;;;;;1.90;1.70;;;18.30;99.90;;;;;;5083925;28;20545;-75
2020/12/19 12:50:46;;;;;;;1.80;1.67;;;17.90;99.90;;;;;;5086958;28;20905;-80
2020/12/19 12:53:14;;;;;;;1.37;1.27;;;17.70;99.90;;;;;;5081577;28;20494;-76
2020/12/19 12:55:41;;;;;;;1.80;1.67;;;17.50;99.90;;;;;;5090202;28;20984;-75
2020/12/19 12:58:08;;;;;;;1.70;1.60;;;17.50;99.90;;;;;;5085301;28;20993;-71
2020/12/19 13:00:35;;;;;;;1.50;1.40;;;17.00;99.90;;;;;;5086444;28;20968;-70
2020/12/19 13:03:02;;;;;;;1.60;1.50;;;17.00;99.90;;;;;;5072123;28;21092;-76
2020/12/19 13:05:30;;;;;;;2.17;1.30;;;16.90;99.90;;;;;;5088960;28;20592;-74
2020/12/19 13:07:59;;;;;;;1.20;1.10;;;16.60;99.90;;;;;;5084851;28;20480;-75